Latest Weather Observations for Hartz Mountains

IDT60801

Issued at 8:05 pm EST Sunday 31 August 2014 (issued every 30 minutes, with the page automatically refreshed every 10 minutes)

About weather observations | Map of weather stations | Latest weather observations for TAS | Other Formats
Station Details ID: 094191 Name: HARTZ MOUNTAIN (KEOGHS PIMPLE) Lat: -43.20 Lon: 146.77 Height: 831.0 m
Data from the previous 72 hours. | See also: Recent months at Hartz Mountains
Date/Time
EST
Temp
°C
App
Temp
°C
Dew
Point
Rel
Hum
%
Delta-T
°C
Wind Press
QNH
hPa
Press
MSL
hPa
Rain
since 9 am
mm
Dir
 
Spd
km/h
Gust
km/h
Spd
kts
Gust
kts
31/08:00pm 8.9 4.6 5.1 77 1.8 NNW 17 22 9 12 - - 0.0
31/07:30pm 9.1 4.8 5.1 76 1.9 NNW 17 22 9 12 - - 0.0
31/07:00pm 9.3 4.9 4.9 74 2.1 NNW 17 28 9 15 - - 0.0
31/06:30pm 9.2 4.8 5.0 75 2.0 NNW 17 24 9 13 - - 0.0
31/06:00pm 9.5 5.1 4.9 73 2.2 NNW 17 22 9 12 - - 0.0
31/05:30pm 9.8 7.0 5.2 73 2.2 NNW 9 13 5 7 - - 0.0
31/05:00pm 10.1 6.9 5.1 71 2.4 N 11 15 6 8 - - 0.0
31/04:30pm 10.6 6.1 4.3 65 3.0 N 17 24 9 13 - - 0.0
31/04:00pm 11.0 7.3 4.5 64 3.1 N 13 17 7 9 - - 0.0
31/03:30pm 12.2 7.8 4.7 60 3.6 NW 17 26 9 14 - - 0.0
31/03:00pm 13.0 9.0 4.9 58 3.9 NW 15 24 8 13 - - 0.0
31/02:30pm 13.0 8.1 4.2 55 4.2 NW 19 26 10 14 - - 0.0
31/02:00pm 14.9 8.9 3.1 45 5.6 NW 24 32 13 17 - - 0.0
31/01:30pm 13.7 7.4 3.5 50 4.8 NW 26 35 14 19 - - 0.0
31/01:00pm 14.0 7.7 3.5 49 5.0 WNW 26 39 14 21 - - 0.0
31/12:30pm 13.3 6.3 2.2 47 5.1 NW 28 39 15 21 - - 0.0
31/12:00pm 12.8 7.2 3.2 52 4.5 NW 22 32 12 17 - - 0.0
31/11:30am 11.8 5.8 1.2 48 4.7 WNW 22 32 12 17 - - 0.0
31/11:00am 11.9 6.7 3.4 56 4.0 WNW 20 30 11 16 - - 0.0
31/10:30am 11.2 4.9 1.5 51 4.3 WNW 24 33 13 18 - - 0.0
31/10:00am 11.3 5.0 1.8 52 4.2 WNW 24 35 13 19 - - 0.0
31/09:30am 10.2 3.4 0.5 51 4.2 W 26 33 14 18 - - 0.0
31/09:00am 9.1 1.0 -0.2 52 3.9 W 32 41 17 22 - - 0.2
31/08:30am 8.9 0.6 -0.1 53 3.8 W 33 43 18 23 - - 0.2
31/08:00am 8.6 0.6 0.6 57 3.4 W 32 39 17 21 - - 0.2
31/07:30am 7.6 0.0 0.3 60 3.0 W 30 43 16 23 - - 0.2
31/07:00am 6.9 -1.1 0.1 62 2.8 W 32 44 17 24 - - 0.2
31/06:30am 6.8 -1.8 0.0 62 2.8 W 35 46 19 25 - - 0.2
31/06:00am 6.5 -2.2 -0.2 62 2.7 W 35 43 19 23 - - 0.2
31/05:30am 6.6 -2.1 -0.8 59 3.0 W 35 41 19 22 - - 0.2
31/05:00am 6.3 -2.5 -0.9 60 2.9 W 35 43 19 23 - - 0.2
31/04:30am 6.2 -1.2 -1.0 60 2.9 W 28 35 15 19 - - 0.2
31/04:00am 6.3 -1.9 -1.3 58 3.0 WNW 32 41 17 22 - - 0.2
31/03:30am 6.7 -1.6 -1.7 55 3.3 W 32 41 17 22 - - 0.2
31/03:00am 6.7 -1.5 -1.0 58 3.1 WNW 32 41 17 22 - - 0.2
31/02:30am 6.6 -1.5 -0.4 61 2.8 WNW 32 44 17 24 - - 0.2
31/02:00am 5.3 -0.9 -0.1 68 2.2 WNW 22 30 12 16 - - 0.2
31/01:30am 5.4 -1.4 0.6 71 2.0 NW 26 33 14 18 - - 0.2
31/01:00am 5.1 -0.8 1.9 80 1.4 NW 22 28 12 15 - - 0.2
31/12:30am 5.1 1.0 2.1 81 1.3 W 13 17 7 9 - - 0.2
31/12:00am 5.2 0.4 2.4 82 1.2 WNW 17 20 9 11 - - 0.2
 
Date/Time
EST
Temp
°C
App
Temp
°C
Dew
Point
Rel
Hum
%
Delta-T
°C
Wind Press
QNH
hPa
Press
MSL
hPa
Rain
since 9 am
mm
Dir
 
Spd
km/h
Gust
km/h
Spd
kts
Gust
kts
30/11:30pm 5.2 0.1 3.2 87 0.9 NW 19 20 10 11 - - 0.2
30/11:00pm 6.2 1.1 3.0 80 1.4 NNW 19 24 10 13 - - 0.2
30/10:30pm 6.2 1.6 3.5 83 1.2 NNW 17 20 9 11 - - 0.2
30/10:00pm 6.6 2.0 3.8 82 1.3 N 17 22 9 12 - - 0.2
30/09:30pm 6.2 1.7 4.0 86 1.0 N 17 20 9 11 - - 0.2
30/09:00pm 6.3 2.5 4.1 86 1.0 N 13 15 7 8 - - 0.2
30/08:30pm 6.7 3.4 4.4 85 1.0 N 11 15 6 8 - - 0.2
30/08:00pm 6.8 3.5 4.5 85 1.1 N 11 15 6 8 - - 0.2
30/07:30pm 7.2 3.9 4.5 83 1.2 N 11 13 6 7 - - 0.2
30/07:00pm 6.9 3.5 4.2 83 1.2 NNE 11 17 6 9 - - 0.2
30/06:30pm 7.5 4.5 4.1 79 1.5 NE 9 13 5 7 - - 0.2
30/06:00pm 8.0 5.6 4.2 77 1.7 E 6 7 3 4 - - 0.2
30/05:30pm 8.2 5.3 4.8 79 1.6 SE 9 11 5 6 - - 0.2
30/05:00pm 9.7 6.7 4.1 68 2.6 NE 9 13 5 7 - - 0.2
30/04:30pm 10.3 7.3 4.0 65 2.9 NNE 9 11 5 6 - - 0.2
30/04:00pm 11.1 8.2 4.6 64 3.1 N 9 13 5 7 - - 0.2
30/03:30pm 11.5 8.6 4.5 62 3.3 NNE 9 13 5 7 - - 0.2
30/03:00pm 12.1 8.8 4.8 61 3.5 N 11 17 6 9 - - 0.2
30/02:30pm 12.1 8.4 4.3 59 3.7 NNE 13 19 7 10 - - 0.2
30/02:00pm 12.2 8.7 5.4 63 3.3 N 13 19 7 10 - - 0.2
30/01:30pm 12.4 8.9 5.6 63 3.3 NNE 13 19 7 10 - - 0.2
30/01:00pm 13.1 9.9 5.0 58 3.9 NE 11 19 6 10 - - 0.0
30/12:30pm 11.9 8.6 4.6 61 3.5 NNE 11 15 6 8 - - 0.0
30/12:00pm 12.3 9.5 5.0 61 3.5 NNE 9 15 5 8 - - 0.0
30/11:30am 11.7 8.8 4.4 61 3.5 NE 9 13 5 7 - - 0.0
30/11:00am 11.9 9.2 5.5 65 3.1 NNE 9 15 5 8 - - 0.0
30/10:30am 12.3 9.2 5.5 63 3.3 N 11 19 6 10 - - 0.0
30/10:00am 11.7 8.6 5.6 66 3.0 N 11 19 6 10 - - 0.0
30/09:30am 10.9 7.5 3.9 62 3.3 N 11 15 6 8 - - 0.0
30/09:00am 10.7 7.1 2.8 58 3.6 N 11 15 6 8 - - 0.0
30/08:30am 10.0 6.8 3.1 62 3.1 N 9 15 5 8 - - 0.0
30/08:00am 8.9 5.3 3.1 67 2.6 NNW 11 15 6 8 - - 0.0
30/07:30am 7.7 3.7 2.6 70 2.2 NNW 13 17 7 9 - - 0.0
30/07:00am 7.3 3.6 2.4 71 2.1 NNW 11 15 6 8 - - 0.0
30/06:30am 7.3 3.6 2.4 71 2.1 N 11 15 6 8 - - 0.0
30/06:00am 7.7 4.0 2.4 69 2.3 N 11 15 6 8 - - 0.0
30/05:30am 7.3 5.4 3.0 74 1.9 NW 2 7 1 4 - - 0.0
30/05:00am 7.4 3.8 2.9 73 2.0 NNW 11 11 6 6 - - 0.0
30/04:30am 7.6 4.4 3.1 73 2.0 NNW 9 13 5 7 - - 0.0
30/04:00am 7.7 5.1 3.2 73 2.0 N 6 9 3 5 - - 0.0
30/03:30am 7.3 4.2 3.4 76 1.7 NNW 9 11 5 6 - - 0.0
30/03:00am 6.9 3.4 3.3 78 1.6 NW 11 13 6 7 - - 0.0
30/02:30am 6.9 3.7 3.2 77 1.6 W 9 9 5 5 - - 0.0
30/02:00am 7.5 4.8 3.7 77 1.7 NW 7 9 4 5 - - 0.0
30/01:30am 7.3 3.8 3.5 77 1.7 N 11 11 6 6 - - 0.0
30/01:00am 7.3 3.8 3.7 78 1.6 WNW 11 13 6 7 - - 0.0
30/12:30am 7.3 3.9 3.9 79 1.5 WNW 11 13 6 7 - - 0.0
30/12:00am 7.2 3.5 4.5 83 1.2 NW 13 13 7 7 - - 0.0
 
Date/Time
EST
Temp
°C
App
Temp
°C
Dew
Point
Rel
Hum
%
Delta-T
°C
Wind Press
QNH
hPa
Press
MSL
hPa
Rain
since 9 am
mm
Dir
 
Spd
km/h
Gust
km/h
Spd
kts
Gust
kts
29/11:30pm 7.3 3.7 4.9 85 1.1 NW 13 15 7 8 - - 0.0
29/11:00pm 7.3 3.7 4.9 85 1.1 WNW 13 17 7 9 - - 0.0
29/10:30pm 6.7 2.8 5.2 90 0.7 NW 15 15 8 8 - - 0.0
29/10:00pm 6.8 4.0 5.1 89 0.8 WNW 9 11 5 6 - - 0.0
29/09:30pm 6.9 4.1 5.2 89 0.8 NW 9 11 5 6 - - 0.0
29/09:00pm 6.9 5.9 5.5 91 0.7 CALM 0 0 0 0 - - 0.0
29/08:30pm 7.0 6.0 5.6 91 0.7 CALM 0 0 0 0 - - 0.0
29/08:00pm 7.0 6.0 5.5 90 0.7 CALM 0 0 0 0 - - 0.0
29/07:30pm 7.3 6.4 5.9 91 0.7 CALM 0 0 0 0 - - 0.0
29/07:00pm 7.4 6.5 6.2 92 0.6 CALM 0 0 0 0 - - 0.0
29/06:30pm 7.4 6.5 6.2 92 0.6 CALM 0 0 0 0 - - 0.0
29/06:00pm 7.4 5.2 6.0 91 0.7 SSE 7 9 4 5 - - 0.0
29/05:30pm 7.7 4.3 6.0 89 0.8 SSE 13 15 7 8 - - 0.0
29/05:00pm 8.7 5.4 6.3 85 1.2 SE 13 15 7 8 - - 0.0
29/04:30pm 10.3 7.8 6.6 78 1.8 ESE 9 13 5 7 - - 0.0
29/04:00pm 11.2 8.9 5.7 69 2.7 ENE 7 9 4 5 - - 0.0
29/03:30pm 11.7 9.0 5.6 66 3.0 N 9 13 5 7 - - 0.0
29/03:00pm 12.3 10.1 5.5 63 3.3 NE 6 11 3 6 - - 0.0
29/02:30pm 12.7 10.1 6.1 64 3.3 N 9 15 5 8 - - 0.0
29/02:00pm 11.5 9.0 4.7 63 3.2 N 7 17 4 9 - - 0.0
29/01:30pm 12.6 10.3 5.8 63 3.3 N 7 15 4 8 - - 0.0
29/01:00pm 12.7 9.9 5.1 60 3.7 N 9 17 5 9 - - 0.0
29/12:30pm 11.7 8.2 5.6 66 3.0 N 13 19 7 10 - - 0.0
29/12:00pm 13.4 11.5 7.4 67 3.1 NNE 7 17 4 9 - - 0.0
29/11:30am 12.5 9.1 5.7 63 3.3 N 13 19 7 10 - - 0.0
29/11:00am 12.8 9.6 5.2 60 3.7 NNE 11 17 6 9 - - 0.0
29/10:30am 12.1 8.9 5.3 63 3.3 NNE 11 15 6 8 - - 0.0
29/10:00am 12.0 9.5 6.5 69 2.7 ENE 9 13 5 7 - - 0.0
29/09:30am 10.7 8.3 5.3 69 2.6 ENE 7 11 4 6 - - 0.0
29/09:00am 8.0 6.3 3.8 75 1.9 SW 2 7 1 4 - - 0.0
29/08:30am 6.9 4.2 3.9 81 1.4 SSW 7 11 4 6 - - 0.0
29/08:00am 6.0 1.8 3.8 86 1.0 SW 15 19 8 10 - - 0.0
29/07:30am 5.1 0.9 3.6 90 0.7 WSW 15 19 8 10 - - 0.0
29/07:00am 5.1 0.6 4.2 94 0.4 WSW 17 20 9 11 - - 0.0
29/06:30am 5.2 0.7 4.2 93 0.4 SW 17 19 9 10 - - 0.0
29/06:00am 5.9 2.1 3.7 86 1.0 SW 13 20 7 11 - - 0.0
29/05:30am 5.5 2.4 3.5 87 0.9 S 9 15 5 8 - - 0.0
29/05:00am 5.2 0.3 3.9 91 0.6 W 19 26 10 14 - - 0.0
29/04:30am 5.4 -0.8 4.2 92 0.5 W 26 33 14 18 - - 0.0
29/04:00am 5.7 -1.3 4.3 91 0.6 W 30 35 16 19 - - 0.0
29/03:30am 5.8 -0.8 4.4 91 0.6 W 28 35 15 19 - - 0.0
29/03:00am 5.9 -1.0 4.7 92 0.5 W 30 35 16 19 - - 0.0
29/02:30am 6.0 -0.4 5.0 93 0.5 W 28 33 15 18 - - 0.0
29/02:00am 6.3 0.2 4.9 91 0.6 W 26 32 14 17 - - 0.0
29/01:30am 6.8 0.8 5.4 91 0.7 W 26 32 14 17 - - 0.0
29/01:00am 6.7 1.6 5.8 94 0.4 W 22 26 12 14 - - 0.0
29/12:30am 6.5 2.7 5.9 96 0.3 W 15 19 8 10 - - 0.0
29/12:00am 6.7 3.3 5.8 94 0.4 W 13 20 7 11 - - 0.0
 
Date/Time
EST
Temp
°C
App
Temp
°C
Dew
Point
Rel
Hum
%
Delta-T
°C
Wind Press
QNH
hPa
Press
MSL
hPa
Rain
since 9 am
mm
Dir
 
Spd
km/h
Gust
km/h
Spd
kts
Gust
kts
28/11:30pm 6.6 5.6 5.7 94 0.4 CALM 0 0 0 0 - - 0.0
28/11:00pm 6.6 5.6 5.6 93 0.5 CALM 0 0 0 0 - - 0.0
28/10:30pm 6.7 5.7 5.5 92 0.6 CALM 0 0 0 0 - - 0.0
28/10:00pm 7.0 6.0 5.5 90 0.7 CALM 0 0 0 0 - - 0.0
28/09:30pm 7.0 5.6 5.6 91 0.7 S 2 7 1 4 - - 0.0
28/09:00pm 6.6 3.9 5.6 93 0.5 S 9 11 5 6 - - 0.0
28/08:30pm 6.8 4.1 5.6 92 0.6 SE 9 11 5 6 - - 0.0

Other Formats:

Comma delimited format used in spreadsheet applications
http://www.bom.gov.au/fwo/IDT60801/IDT60801.94977.axf

JavaScript Object Notation format (JSON) in row-major order
http://www.bom.gov.au/fwo/IDT60801/IDT60801.94977.json